CDT,Max TemperatureF,Mean TemperatureF,Min TemperatureF,Max Dew PointF,MeanDew PointF,Min DewpointF,Max Humidity, Mean Humidity, Min Humidity, Max Sea Level PressureIn, Mean Sea Level PressureIn, Min Sea Level PressureIn, Max VisibilityMiles, Mean VisibilityMiles, Min VisibilityMiles, Max Wind SpeedMPH, Mean Wind SpeedMPH, Max Gust SpeedMPH,PrecipitationIn, CloudCover, Events, WindDirDegrees
2012-3-1,75,70,66,68,65,64,94,85,71,30.03,29.98,29.90,10,7,0,14,6,18,0.65,6,Fog-Rain-Thunderstorm,212
2012-3-2,82,76,69,68,66,64,90,78,54,29.94,29.87,29.75,10,9,5,21,10,30,0.05,6,Rain,193
2012-3-3,72,62,48,66,53,34,94,74,48,29.96,29.81,29.73,10,10,4,13,9,23,0.07,7,Rain,314
2012-3-4,64,52,41,39,29,18,80,48,19,30.21,30.11,29.97,10,10,10,15,5,26,0.00,0,,299
2012-3-5,72,58,39,38,33,26,86,45,20,30.43,30.34,30.22,10,10,10,13,6,18,0.00,0,,318
2012-3-6,72,53,34,42,32,26,89,57,18,30.49,30.43,30.39,10,10,6,12,3,,0.00,1,,136
2012-3-7,77,62,46,54,50,40,89,62,42,30.41,30.34,30.28,10,10,9,17,8,24,0.00,5,,147
2012-3-8,80,66,52,63,58,49,90,75,52,30.29,30.22,30.14,10,9,6,18,6,25,0.00,6,,167
2012-3-9,68,59,48,64,56,42,94,85,77,30.33,30.24,30.14,10,8,2,14,6,23,0.30,7,Rain,339
2012-3-10,73,58,44,53,44,35,89,62,41,30.35,30.30,30.24,10,10,10,13,4,16,0.00,1,,72
2012-3-11,73,65,57,63,55,41,90,70,51,30.36,30.29,30.24,10,10,5,15,7,22,0.01,7,Rain,119
2012-3-12,75,70,64,65,63,61,94,83,62,30.29,30.25,30.20,10,9,5,17,8,25,0.11,7,Rain,152
2012-3-13,82,74,66,66,65,61,94,84,50,30.28,30.24,30.17,10,6,0,12,5,,0.00,6,Fog-Rain-Thunderstorm,159
2012-3-14,84,74,63,67,63,59,94,83,45,30.31,30.25,30.19,10,5,0,8,1,,0.03,5,Fog-Rain-Thunderstorm,155
2012-3-15,87,70,55,63,58,54,94,81,36,30.31,30.24,30.17,10,5,0,6,1,,0.00,2,Fog,250
2012-3-16,87,72,57,60,56,52,90,64,33,30.26,30.20,30.14,10,9,5,10,2,,0.00,2,,193
2012-3-17,86,68,51,62,55,50,94,73,35,30.27,30.21,30.14,10,7,0,9,1,,0.01,2,Fog,193
2012-3-18,87,70,53,63,55,50,94,74,33,30.27,30.21,30.15,10,8,0,13,1,,0.00,2,Fog,201
2012-3-19,86,68,53,60,55,50,94,67,34,30.18,30.13,30.06,10,9,5,15,3,25,0.00,0,,153
2012-3-20,87,71,55,60,55,52,94,69,32,30.11,30.05,29.99,10,8,0,21,3,30,0.01,1,Fog,141
2012-3-21,86,72,61,62,58,52,87,61,32,30.11,30.06,30.01,10,10,10,18,8,26,0.00,2,Rain,143
2012-3-22,81,72,64,66,64,62,94,82,54,30.10,30.07,30.03,10,9,1,22,8,31,0.78,7,Rain-Thunderstorm,129
2012-3-23,77,70,63,70,67,61,94,84,64,30.08,30.02,29.96,10,8,2,14,7,,0.26,6,Rain-Thunderstorm,185
2012-3-24,81,69,57,64,59,46,94,77,32,30.00,29.95,29.87,10,7,1,10,2,21,0.01,4,,284
2012-3-25,80,66,51,57,52,48,90,65,35,30.00,29.96,29.91,10,10,8,12,2,21,0.00,0,,350
2012-3-26,84,68,53,59,54,50,90,68,33,30.08,30.02,29.98,10,8,3,10,2,18,0.00,0,,360
2012-3-27,87,70,53,58,53,49,90,60,30,30.18,30.12,30.05,10,8,3,10,2,,0.01,1,,178
2012-3-28,84,68,53,64,57,51,100,77,33,30.22,30.15,30.06,10,6,0,8,1,18,0.00,3,Fog,195
2012-3-29,84,73,62,65,61,50,94,77,31,30.10,30.04,29.94,10,6,0,8,1,,0.00,6,Fog,191
2012-3-30,80,72,66,67,65,60,94,85,60,30.03,29.95,29.90,10,5,0,34,4,60,1.51,7,Fog-Rain-Thunderstorm,169
2012-3-31,82,74,66,68,65,63,94,85,58,29.97,29.92,29.86,10,6,1,6,1,,0.23,5,Rain-Thunderstorm,247